Adelphi, Ohio
Current Conditions -  °F | °C
As of 2:54 PM on Sunday 23 Nov 2014 (Local Time) from KRZT Reporting Station
Overcast Overcast  
Wind Chill: 17°   Ceiling: 8000
Heat Index: 17°   Visibility: 10mi
Dew Point:   Wind: 8mph
Humidity: 37%   Direction: 130°SE
Pressure: 29.73"   Gusts: NA
Location:  39.47°N, 82.75°W
Report Text: KRZT 231954Z AUTO 13007KT 097V157 10SM OVC080 17/02 A2973 RMK AO2
Loading
Personal Weather Stations






























Interactive Weather Map New forecast layout! Learn more

10-Day Weather Forecast

Advertisements
Track Severe Weather on mobile